createdAt,value
2018-04-22T00:00:10.364Z,14.11
2018-04-22T00:02:39.339Z,14.16
2018-04-22T00:05:08.114Z,14.24
2018-04-22T00:07:36.926Z,14.22
2018-04-22T00:10:05.823Z,14.25
2018-04-22T00:12:34.673Z,14.29
2018-04-22T00:15:03.509Z,14.30
2018-04-22T00:17:34.952Z,14.29
2018-04-22T00:20:03.813Z,14.33
2018-04-22T00:22:32.637Z,14.31
2018-04-22T00:25:02.346Z,14.33
2018-04-22T00:27:31.229Z,14.37
2018-04-22T00:30:00.073Z,14.28
2018-04-22T00:32:28.976Z,14.26
2018-04-22T00:34:57.831Z,14.29
2018-04-22T00:37:26.611Z,14.24
2018-04-22T00:39:57.115Z,14.26
2018-04-22T00:42:25.900Z,14.20
2018-04-22T00:44:55.099Z,14.14
2018-04-22T00:47:24.801Z,14.04
2018-04-22T00:49:53.640Z,13.94
2018-04-22T00:52:22.495Z,13.77
2018-04-22T00:57:25.172Z,13.69
2018-04-22T00:59:54.111Z,13.75
2018-04-22T01:02:23.959Z,13.81
2018-04-22T01:04:53.740Z,13.90
2018-04-22T01:07:23.583Z,14.01
2018-04-22T01:09:52.649Z,14.11
2018-04-22T01:12:22.671Z,14.20
2018-04-22T01:14:52.482Z,14.31
2018-04-22T01:17:24.853Z,14.42
2018-04-22T01:19:53.987Z,14.53
2018-04-22T01:22:22.945Z,14.66
2018-04-22T01:24:52.043Z,14.78
2018-04-22T01:27:21.041Z,14.85
2018-04-22T01:29:50.117Z,14.94
2018-04-22T01:32:19.988Z,14.99
2018-04-22T01:34:49.418Z,15.01
2018-04-22T01:37:18.249Z,15.01
2018-04-22T01:39:48.815Z,15.06
2018-04-22T01:42:17.641Z,15.23
2018-04-22T01:44:46.425Z,15.30
2018-04-22T01:47:18.009Z,15.44
2018-04-22T01:49:47.011Z,15.51
2018-04-22T01:52:16.775Z,15.58
2018-04-22T01:54:45.929Z,15.58
2018-04-22T01:57:15.599Z,15.62
2018-04-22T01:59:45.444Z,15.58
2018-04-22T02:02:15.358Z,15.56
2018-04-22T02:04:44.351Z,15.56
2018-04-22T02:07:13.893Z,15.59
2018-04-22T02:09:42.845Z,15.59
2018-04-22T02:12:12.600Z,15.51
2018-04-22T02:14:42.474Z,15.49
2018-04-22T02:17:11.463Z,15.44
2018-04-22T02:19:41.643Z,15.40
2018-04-22T02:22:10.686Z,15.34
2018-04-22T02:24:40.493Z,15.31
2018-04-22T02:27:09.489Z,15.26
2018-04-22T02:29:38.535Z,15.25
2018-04-22T02:32:08.399Z,15.20
2018-04-22T02:34:37.293Z,15.25
2018-04-22T02:37:06.298Z,15.14
2018-04-22T02:39:35.280Z,15.05
2018-04-22T02:42:04.270Z,15.04
2018-04-22T02:44:33.266Z,15.05
2018-04-22T02:47:02.253Z,15.09
2018-04-22T02:49:31.121Z,15.10
2018-04-22T02:52:06.120Z,15.11
2018-04-22T02:54:35.090Z,15.13
2018-04-22T02:57:04.072Z,15.14
2018-04-22T02:59:34.373Z,15.16
2018-04-22T03:02:03.482Z,15.24
2018-04-22T03:04:32.505Z,15.27
2018-04-22T03:07:01.475Z,15.32
2018-04-22T03:09:30.375Z,15.36
2018-04-22T03:11:59.389Z,15.38
2018-04-22T03:17:02.050Z,15.36
2018-04-22T03:19:31.162Z,15.38
2018-04-22T03:22:00.257Z,15.41
2018-04-22T03:24:29.251Z,15.42
2018-04-22T03:26:58.187Z,15.47
2018-04-22T03:29:28.017Z,15.46
2018-04-22T03:31:56.955Z,15.51
2018-04-22T03:34:25.856Z,15.59
2018-04-22T03:36:55.022Z,15.89
2018-04-22T03:39:24.039Z,16.23
2018-04-22T03:41:53.041Z,16.61
2018-04-22T03:44:28.381Z,17.05
2018-04-22T03:46:57.313Z,17.35
2018-04-22T03:49:26.132Z,17.88
2018-04-22T03:51:54.972Z,18.14
2018-04-22T03:54:23.844Z,18.79
2018-04-22T03:56:52.633Z,19.39
2018-04-22T03:59:22.304Z,19.99
2018-04-22T04:01:51.086Z,20.46
2018-04-22T04:04:19.831Z,19.85
2018-04-22T04:06:49.541Z,18.86
2018-04-22T04:09:18.355Z,19.53
2018-04-22T04:11:47.182Z,19.70
2018-04-22T04:14:16.155Z,18.89
2018-04-22T04:16:45.036Z,19.70
2018-04-22T04:19:25.903Z,20.05
2018-04-22T04:22:06.667Z,20.99
2018-04-22T04:24:47.656Z,21.91
2018-04-22T04:27:37.950Z,22.42
2018-04-22T04:30:06.967Z,23.88
2018-04-22T04:32:35.951Z,24.38
2018-04-22T04:35:05.037Z,24.45
2018-04-22T04:37:34.389Z,24.28
2018-04-22T04:40:04.364Z,24.34
2018-04-22T04:42:33.369Z,24.39
2018-04-22T04:45:02.356Z,24.32
2018-04-22T04:47:31.284Z,24.87
2018-04-22T04:50:00.319Z,24.67
2018-04-22T04:52:35.792Z,24.31
2018-04-22T04:55:04.755Z,24.15
2018-04-22T04:57:40.530Z,24.72
2018-04-22T05:00:10.288Z,24.68
2018-04-22T05:02:39.244Z,25.01
2018-04-22T05:05:08.437Z,25.79
2018-04-22T05:07:37.328Z,26.02
2018-04-22T05:10:07.453Z,25.80
2018-04-22T05:12:36.755Z,26.11
2018-04-22T05:15:05.710Z,26.32
2018-04-22T05:17:34.738Z,26.23
2018-04-22T05:20:03.937Z,25.95
2018-04-22T05:22:32.884Z,26.06
2018-04-22T05:25:02.000Z,25.54
2018-04-22T05:27:31.221Z,25.45
2018-04-22T05:30:00.156Z,25.14
2018-04-22T05:32:29.226Z,25.47
2018-04-22T05:34:58.208Z,26.05
2018-04-22T05:37:27.202Z,26.62
2018-04-22T05:39:56.202Z,27.14
2018-04-22T05:42:25.393Z,27.34
2018-04-22T05:44:55.586Z,27.24
2018-04-22T05:47:24.572Z,27.16
2018-04-22T05:52:27.245Z,27.42
2018-04-22T05:54:56.262Z,27.39
2018-04-22T05:57:28.211Z,27.49
2018-04-22T05:59:57.154Z,27.84
2018-04-22T06:02:26.102Z,27.82
2018-04-22T06:04:55.046Z,27.70
2018-04-22T06:07:23.981Z,28.32
2018-04-22T06:09:52.928Z,27.80
2018-04-22T06:12:22.929Z,27.88
2018-04-22T06:14:52.907Z,28.45
2018-04-22T06:17:22.374Z,28.65
2018-04-22T06:19:51.461Z,28.94
2018-04-22T06:22:20.464Z,28.88
2018-04-22T06:24:50.176Z,28.93
2018-04-22T06:27:19.164Z,29.25
2018-04-22T06:29:48.015Z,29.91
2018-04-22T06:32:17.977Z,29.76
2018-04-22T06:37:22.044Z,29.69
2018-04-22T06:39:52.294Z,29.13
2018-04-22T06:42:21.407Z,29.33
2018-04-22T06:44:50.877Z,29.34
2018-04-22T06:47:19.823Z,29.36
2018-04-22T06:49:49.904Z,30.29
2018-04-22T06:52:18.839Z,30.54
2018-04-22T06:54:47.829Z,30.59
2018-04-22T06:57:16.801Z,30.13
2018-04-22T06:59:45.748Z,30.05
2018-04-22T07:02:14.743Z,30.47
2018-04-22T07:04:44.263Z,29.97
2018-04-22T07:07:13.211Z,30.14
2018-04-22T07:09:42.104Z,31.34
2018-04-22T07:12:11.505Z,31.83
2018-04-22T07:14:40.602Z,31.07
2018-04-22T07:17:09.808Z,30.27
2018-04-22T07:19:39.622Z,30.21
2018-04-22T07:22:08.650Z,30.39
2018-04-22T07:24:37.722Z,30.66
2018-04-22T07:27:06.872Z,29.73
2018-04-22T07:29:35.842Z,29.19
2018-04-22T07:32:05.715Z,28.52
2018-04-22T07:34:34.666Z,28.18
2018-04-22T07:37:04.026Z,27.67
2018-04-22T07:39:32.895Z,26.76
2018-04-22T07:42:03.575Z,26.55
2018-04-22T07:44:32.605Z,26.56
2018-04-22T07:47:01.567Z,26.36
2018-04-22T07:49:31.355Z,26.03
2018-04-22T07:52:00.982Z,25.91
2018-04-22T07:54:30.493Z,25.85
2018-04-22T07:57:00.338Z,25.86
2018-04-22T07:59:30.014Z,25.89
2018-04-22T08:02:00.033Z,25.89
2018-04-22T08:04:30.692Z,25.83
2018-04-22T08:07:01.069Z,25.82
2018-04-22T08:09:31.040Z,25.84
2018-04-22T08:12:00.155Z,25.79
2018-04-22T08:14:29.139Z,25.86
2018-04-22T08:16:58.094Z,26.01
2018-04-22T08:19:28.091Z,25.95
2018-04-22T08:21:57.153Z,25.96
2018-04-22T08:24:26.105Z,25.91
2018-04-22T08:26:56.834Z,25.85
2018-04-22T08:29:25.860Z,26.06
2018-04-22T08:31:54.982Z,26.20
2018-04-22T08:34:25.809Z,26.20
2018-04-22T08:36:54.787Z,26.30
2018-04-22T08:39:24.635Z,26.40
2018-04-22T08:44:29.320Z,26.75
2018-04-22T08:46:58.417Z,26.81
2018-04-22T08:49:29.658Z,26.69
2018-04-22T08:51:58.699Z,26.81
2018-04-22T08:54:27.663Z,26.71
2018-04-22T08:56:57.677Z,26.61
2018-04-22T08:59:26.561Z,26.39
2018-04-22T09:01:55.431Z,26.33
2018-04-22T09:04:25.216Z,26.04
2018-04-22T09:06:55.315Z,26.18
2018-04-22T09:09:24.276Z,26.25
2018-04-22T09:11:53.377Z,26.32
2018-04-22T09:14:22.365Z,26.14
2018-04-22T09:16:51.477Z,26.10
2018-04-22T09:19:22.091Z,26.16
2018-04-22T09:21:51.090Z,26.07
2018-04-22T09:24:20.081Z,26.06
2018-04-22T09:26:52.147Z,26.20
2018-04-22T09:29:21.703Z,25.99
2018-04-22T09:31:51.473Z,25.94
2018-04-22T09:34:21.569Z,26.10
2018-04-22T09:36:50.585Z,26.04
2018-04-22T09:39:19.471Z,26.14
2018-04-22T09:41:52.409Z,26.31
2018-04-22T09:44:21.299Z,26.25
2018-04-22T09:46:51.271Z,26.29
2018-04-22T09:49:20.265Z,26.29
2018-04-22T09:51:50.282Z,25.99
2018-04-22T09:54:19.297Z,26.08
2018-04-22T09:56:50.088Z,26.22
2018-04-22T09:59:19.027Z,26.34
2018-04-22T10:01:48.720Z,26.34
2018-04-22T10:04:17.919Z,26.48
2018-04-22T10:06:46.934Z,26.32
2018-04-22T10:09:17.440Z,26.16
2018-04-22T10:11:46.472Z,26.26
2018-04-22T10:14:15.383Z,26.16
2018-04-22T10:16:45.139Z,26.31
2018-04-22T10:19:14.343Z,26.33
2018-04-22T10:21:43.357Z,26.29
2018-04-22T10:24:12.278Z,25.68
2018-04-22T10:26:41.359Z,25.73
2018-04-22T10:29:10.468Z,25.95
2018-04-22T10:31:39.659Z,26.09
2018-04-22T10:34:10.464Z,26.10
2018-04-22T10:36:39.570Z,26.05
2018-04-22T10:39:08.750Z,26.20
2018-04-22T10:41:40.211Z,26.38
2018-04-22T10:44:09.238Z,26.39
2018-04-22T10:46:38.205Z,26.31
2018-04-22T10:49:07.391Z,25.99
2018-04-22T10:51:36.391Z,25.77
2018-04-22T10:54:06.245Z,25.60
2018-04-22T10:56:36.316Z,25.45
2018-04-22T10:59:05.319Z,25.41
2018-04-22T11:01:34.445Z,25.21
2018-04-22T11:04:03.447Z,24.98
2018-04-22T11:06:32.507Z,24.90
2018-04-22T11:09:01.591Z,24.68
2018-04-22T11:11:31.367Z,24.52
2018-04-22T11:14:00.308Z,24.68
2018-04-22T11:16:29.443Z,24.81
2018-04-22T11:18:58.701Z,24.75
2018-04-22T11:21:28.413Z,24.80
2018-04-22T11:23:58.534Z,24.79
2018-04-22T11:29:01.776Z,25.00
2018-04-22T11:31:31.768Z,24.91
2018-04-22T11:34:01.608Z,25.01
2018-04-22T11:36:30.564Z,25.05
2018-04-22T11:38:59.973Z,25.03
2018-04-22T11:44:02.984Z,24.79
2018-04-22T11:46:31.870Z,24.81
2018-04-22T11:49:00.772Z,24.80
2018-04-22T11:51:29.897Z,24.78
2018-04-22T11:53:58.874Z,24.87
2018-04-22T11:56:28.570Z,24.83
2018-04-22T11:58:58.468Z,24.86
2018-04-22T12:01:27.367Z,24.28
2018-04-22T12:03:57.233Z,24.32
2018-04-22T12:06:28.949Z,24.45
2018-04-22T12:08:57.835Z,24.36
2018-04-22T12:11:26.928Z,23.92
2018-04-22T12:13:55.923Z,23.94
2018-04-22T12:16:25.127Z,23.87
2018-04-22T12:18:54.398Z,23.56
2018-04-22T12:21:23.629Z,23.50
2018-04-22T12:23:52.869Z,23.57
2018-04-22T12:26:21.922Z,23.42
2018-04-22T12:28:51.051Z,23.25
2018-04-22T12:31:20.932Z,23.13
2018-04-22T12:33:50.950Z,23.10
2018-04-22T12:36:19.845Z,23.21
2018-04-22T12:38:48.937Z,23.21
2018-04-22T12:41:17.872Z,23.11
2018-04-22T12:43:47.741Z,22.93
2018-04-22T12:46:18.130Z,22.84
2018-04-22T12:48:47.104Z,22.80
2018-04-22T12:51:16.903Z,22.92
2018-04-22T12:53:46.184Z,22.90
2018-04-22T12:56:16.202Z,23.00
2018-04-22T12:58:45.758Z,22.98
2018-04-22T13:01:14.710Z,23.11
2018-04-22T13:03:45.024Z,23.15
2018-04-22T13:06:14.017Z,23.24
2018-04-22T13:08:42.942Z,23.25
2018-04-22T13:11:11.903Z,23.26
2018-04-22T13:13:48.134Z,23.38
2018-04-22T13:16:17.264Z,23.36
2018-04-22T13:18:46.260Z,23.38
2018-04-22T13:23:50.391Z,23.50
2018-04-22T13:26:20.339Z,23.43
2018-04-22T13:28:49.309Z,23.52
2018-04-22T13:31:18.400Z,23.55
2018-04-22T13:33:48.324Z,23.09
2018-04-22T13:36:17.334Z,22.98
2018-04-22T13:38:49.885Z,22.72
2018-04-22T13:41:18.880Z,22.81
2018-04-22T13:43:47.833Z,22.62
2018-04-22T13:46:16.970Z,22.51
2018-04-22T13:48:45.962Z,22.48
2018-04-22T13:51:14.931Z,22.51
2018-04-22T13:53:45.487Z,22.41
2018-04-22T13:56:14.617Z,22.22
2018-04-22T13:58:43.570Z,22.28
2018-04-22T14:01:16.923Z,22.37
2018-04-22T14:03:46.676Z,22.45
2018-04-22T14:06:17.388Z,22.55
2018-04-22T14:08:46.507Z,22.54
2018-04-22T14:11:15.548Z,22.49
2018-04-22T14:13:51.246Z,22.46
2018-04-22T14:16:20.456Z,22.36
2018-04-22T14:18:49.861Z,22.35
2018-04-22T14:21:19.776Z,22.25
2018-04-22T14:23:48.731Z,22.16
2018-04-22T14:26:17.661Z,22.03
2018-04-22T14:28:46.656Z,22.08
2018-04-22T14:31:16.469Z,22.15
2018-04-22T14:33:45.450Z,22.06
2018-04-22T14:36:14.669Z,21.97
2018-04-22T14:38:44.270Z,21.98
2018-04-22T14:41:13.329Z,22.06
2018-04-22T14:43:49.060Z,22.12
2018-04-22T14:46:17.905Z,22.11
2018-04-22T14:49:00.463Z,22.19
2018-04-22T14:51:29.310Z,22.19
2018-04-22T14:53:58.254Z,22.19
2018-04-22T14:56:27.198Z,22.22
2018-04-22T14:58:56.740Z,22.10
2018-04-22T15:01:25.696Z,22.04
2018-04-22T15:03:55.348Z,21.94
2018-04-22T15:06:24.291Z,21.75
2018-04-22T15:08:53.950Z,21.72
2018-04-22T15:11:23.865Z,21.74
2018-04-22T15:13:54.662Z,21.57
2018-04-22T15:16:27.135Z,21.39
2018-04-22T15:18:56.236Z,21.28
2018-04-22T15:21:25.129Z,21.34
2018-04-22T15:23:54.120Z,21.34
2018-04-22T15:26:23.256Z,21.34
2018-04-22T15:28:52.153Z,21.31
2018-04-22T15:31:21.817Z,21.30
2018-04-22T15:33:50.910Z,21.20
2018-04-22T15:36:19.937Z,21.14
2018-04-22T15:38:51.544Z,21.13
2018-04-22T15:41:20.579Z,21.06
2018-04-22T15:43:50.272Z,21.03
2018-04-22T15:46:20.077Z,21.04
2018-04-22T15:48:49.068Z,21.07
2018-04-22T15:51:18.072Z,21.05
2018-04-22T15:53:47.070Z,20.99
2018-04-22T15:56:16.822Z,20.81
2018-04-22T15:58:46.814Z,20.79
2018-04-22T16:01:16.864Z,20.68
2018-04-22T16:03:45.808Z,20.71
2018-04-22T16:06:14.804Z,20.68
2018-04-22T16:08:45.722Z,20.54
2018-04-22T16:11:14.733Z,20.50
2018-04-22T16:13:44.402Z,20.40
2018-04-22T16:16:14.423Z,20.37
2018-04-22T16:18:43.416Z,20.37
2018-04-22T16:21:12.359Z,20.32
2018-04-22T16:23:42.137Z,20.22
2018-04-22T16:26:12.078Z,20.17
2018-04-22T16:28:41.386Z,20.15
2018-04-22T16:31:13.656Z,20.15
2018-04-22T16:33:42.643Z,20.08
2018-04-22T16:36:12.536Z,20.01
2018-04-22T16:38:41.660Z,19.95
2018-04-22T16:41:10.756Z,19.91
2018-04-22T16:43:39.844Z,19.86
2018-04-22T16:46:11.612Z,19.80
2018-04-22T16:48:40.606Z,19.66
2018-04-22T16:51:09.541Z,19.60
2018-04-22T16:53:38.838Z,19.53
2018-04-22T16:56:08.547Z,19.38
2018-04-22T16:58:37.498Z,19.15
2018-04-22T17:01:07.196Z,19.08
2018-04-22T17:03:36.040Z,19.02
2018-04-22T17:06:04.890Z,19.02
2018-04-22T17:08:33.741Z,18.93
2018-04-22T17:11:02.584Z,18.83
2018-04-22T17:13:31.501Z,18.69
2018-04-22T17:16:01.168Z,18.65
2018-04-22T17:18:29.993Z,18.62
2018-04-22T17:20:58.802Z,18.59
2018-04-22T17:23:27.701Z,18.53
2018-04-22T17:25:56.490Z,18.52
2018-04-22T17:28:25.345Z,18.46
2018-04-22T17:30:55.006Z,18.47
2018-04-22T17:33:23.871Z,18.36
2018-04-22T17:35:52.717Z,18.32
2018-04-22T17:38:27.426Z,18.26
2018-04-22T17:40:56.205Z,18.21
2018-04-22T17:43:25.166Z,18.18
2018-04-22T17:45:54.052Z,18.13
2018-04-22T17:48:23.868Z,18.12
2018-04-22T17:50:52.693Z,18.06
2018-04-22T17:53:21.643Z,17.99
2018-04-22T17:55:50.596Z,17.96
2018-04-22T17:58:19.419Z,17.95
2018-04-22T18:00:48.267Z,17.95
2018-04-22T18:03:17.115Z,17.91
2018-04-22T18:05:45.923Z,17.90
2018-04-22T18:08:15.680Z,17.88
2018-04-22T18:10:44.539Z,17.84
2018-04-22T18:13:13.390Z,17.83
2018-04-22T18:15:42.254Z,17.82
2018-04-22T18:18:11.045Z,17.82
2018-04-22T18:20:39.847Z,17.86
2018-04-22T18:23:08.708Z,17.93
2018-04-22T18:25:37.525Z,17.94
2018-04-22T18:28:06.345Z,17.97
2018-04-22T18:30:36.847Z,17.96
2018-04-22T18:33:05.687Z,17.93
2018-04-22T18:35:34.503Z,17.96
2018-04-22T18:38:05.022Z,17.95
2018-04-22T18:40:34.226Z,17.98
2018-04-22T18:43:03.111Z,17.96
2018-04-22T18:45:31.978Z,17.94
2018-04-22T18:48:00.865Z,17.90
2018-04-22T18:50:29.748Z,17.83
2018-04-22T18:52:58.678Z,17.87
2018-04-22T18:55:27.550Z,17.91
2018-04-22T18:57:56.378Z,17.89
2018-04-22T19:02:58.960Z,17.77
2018-04-22T19:05:30.245Z,17.75
2018-04-22T19:10:33.476Z,17.71
2018-04-22T19:13:02.290Z,17.67
2018-04-22T19:15:31.119Z,17.62
2018-04-22T19:18:01.584Z,17.58
2018-04-22T19:20:30.613Z,17.50
2018-04-22T19:23:02.518Z,17.40
2018-04-22T19:25:31.468Z,17.34
2018-04-22T19:28:02.549Z,17.27
2018-04-22T19:30:32.348Z,17.25
2018-04-22T19:33:02.168Z,17.20
2018-04-22T19:35:32.707Z,17.13
2018-04-22T19:38:02.138Z,17.05
2018-04-22T19:40:31.208Z,17.00
2018-04-22T19:43:00.190Z,16.96
2018-04-22T19:45:30.781Z,16.96
2018-04-22T19:48:00.133Z,16.94
2018-04-22T19:50:29.016Z,16.90
2018-04-22T19:52:58.126Z,16.89
2018-04-22T19:55:27.043Z,16.87
2018-04-22T19:57:56.718Z,16.86
2018-04-22T20:00:27.378Z,16.85
2018-04-22T20:02:56.244Z,16.86
2018-04-22T20:05:25.336Z,16.82
2018-04-22T20:07:55.164Z,16.76
2018-04-22T20:10:24.138Z,16.69
2018-04-22T20:12:53.040Z,16.66
2018-04-22T20:15:22.172Z,16.61
2018-04-22T20:17:51.330Z,16.58
2018-04-22T20:20:20.321Z,16.50
2018-04-22T20:22:50.141Z,16.41
2018-04-22T20:25:19.126Z,16.30
2018-04-22T20:27:48.226Z,16.24
2018-04-22T20:32:51.639Z,16.18
2018-04-22T20:35:20.674Z,16.14
2018-04-22T20:40:23.034Z,15.98
2018-04-22T20:42:52.954Z,15.92
2018-04-22T20:45:22.936Z,15.89
2018-04-22T20:47:51.958Z,15.89
2018-04-22T20:50:21.171Z,15.84
2018-04-22T20:52:57.813Z,15.82
2018-04-22T20:55:26.920Z,15.75
2018-04-22T20:57:55.996Z,15.75
2018-04-22T21:00:25.124Z,15.72
2018-04-22T21:02:54.114Z,15.67
2018-04-22T21:05:23.084Z,15.58
2018-04-22T21:07:54.282Z,15.47
2018-04-22T21:10:23.374Z,15.39
2018-04-22T21:12:52.318Z,15.29
2018-04-22T21:15:22.336Z,15.24
2018-04-22T21:17:51.557Z,15.23
2018-04-22T21:20:20.416Z,15.27
2018-04-22T21:22:49.433Z,15.27
2018-04-22T21:25:18.369Z,15.29
2018-04-22T21:27:48.148Z,15.33
2018-04-22T21:30:17.148Z,15.38
2018-04-22T21:32:46.469Z,15.36
2018-04-22T21:35:15.539Z,15.29
2018-04-22T21:37:45.366Z,15.30
2018-04-22T21:40:14.348Z,15.28
2018-04-22T21:42:44.162Z,15.24
2018-04-22T21:45:13.926Z,15.15
2018-04-22T21:47:43.018Z,15.23
2018-04-22T21:50:11.958Z,15.41
2018-04-22T21:52:46.082Z,15.67
2018-04-22T21:55:16.006Z,15.95
2018-04-22T21:57:44.987Z,16.44
2018-04-22T22:00:14.952Z,16.82
2018-04-22T22:02:44.920Z,17.22
2018-04-22T22:05:14.016Z,17.42
2018-04-22T22:07:44.750Z,17.74
2018-04-22T22:10:14.356Z,17.97
2018-04-22T22:12:43.260Z,18.23
2018-04-22T22:15:13.100Z,18.42
2018-04-22T22:17:43.082Z,18.61
2018-04-22T22:20:12.968Z,18.70
2018-04-22T22:22:42.025Z,18.80
2018-04-22T22:25:11.626Z,18.93
2018-04-22T22:27:40.590Z,19.03
2018-04-22T22:30:09.687Z,19.16
2018-04-22T22:32:38.801Z,19.23
2018-04-22T22:35:08.498Z,19.31
2018-04-22T22:37:39.248Z,19.44
2018-04-22T22:40:08.365Z,19.50
2018-04-22T22:42:37.325Z,19.57
2018-04-22T22:45:06.625Z,19.55
2018-04-22T22:47:36.471Z,19.58
2018-04-22T22:50:05.493Z,19.56
2018-04-22T22:52:35.332Z,19.54
2018-04-22T22:55:05.264Z,19.56
2018-04-22T22:57:34.773Z,19.57
2018-04-22T23:00:06.268Z,19.61
2018-04-22T23:02:35.824Z,19.66
2018-04-22T23:05:05.435Z,19.69
2018-04-22T23:07:35.296Z,19.63
2018-04-22T23:10:04.366Z,19.66
2018-04-22T23:12:33.281Z,19.61
2018-04-22T23:15:04.078Z,19.65
2018-04-22T23:17:33.873Z,19.66
2018-04-22T23:20:02.786Z,19.68
2018-04-22T23:22:32.289Z,19.63
2018-04-22T23:25:02.517Z,19.68
2018-04-22T23:27:31.512Z,19.70
2018-04-22T23:30:02.034Z,19.69
2018-04-22T23:32:31.135Z,19.73
2018-04-22T23:35:00.247Z,19.76
2018-04-22T23:37:29.372Z,19.80
2018-04-22T23:39:58.311Z,19.85
2018-04-22T23:42:27.184Z,19.86
2018-04-22T23:44:57.102Z,19.88
2018-04-22T23:47:26.116Z,19.84
2018-04-22T23:49:55.047Z,19.84
2018-04-22T23:52:24.827Z,19.79
2018-04-22T23:54:53.815Z,19.78
2018-04-22T23:57:22.724Z,19.78
